Wetterdaten: aktuell Freitag, 01.12.2023 00:20
Datum Zeit Temp. A. Feuchte A. Luftdruck Regen Wind Richtung Richtung Taupunkt Windchill Windben Empfang
01.12.2023 00:20 -0,9 C 97 % 1004,8 hPa 0,0 l/m 2,5 km/h (1 Bft) O-NO 76 -1,3 C -0,9 C 6,5 km/h (2 Bft) 99 %
01.12.2023 00:10 -0,8 C 96 % 1004,8 hPa 0,0 l/m 1,6 km/h (1 Bft) O 82 -1,4 C -0,8 C 8,7 km/h (2 Bft) 99 %
01.12.2023 00:00 -0,8 C 96 % 1004,8 hPa 0,0 l/m 1,0 km/h (0 Bft) O-NO 70 -1,4 C -0,8 C 6,5 km/h (2 Bft) 100 %
30.11.2023 23:50 -0,7 C 96 % 1004,7 hPa 0,0 l/m 2,3 km/h (1 Bft) O-NO 72 -1,3 C -0,7 C 8,7 km/h (2 Bft) 100 %
30.11.2023 23:40 -0,7 C 97 % 1004,6 hPa 0,0 l/m 2,0 km/h (1 Bft) O-NO 78 -1,1 C -0,7 C 8,7 km/h (2 Bft) 98 %
30.11.2023 23:30 -0,7 C 97 % 1004,5 hPa 0,0 l/m 2,8 km/h (1 Bft) O 79 -1,1 C -0,7 C 15,2 km/h (3 Bft) 99 %
30.11.2023 23:20 -0,7 C 97 % 1004,5 hPa 0,0 l/m 2,6 km/h (1 Bft) O-NO 78 -1,1 C -0,7 C 10,9 km/h (2 Bft) 100 %
30.11.2023 23:10 -0,7 C 96 % 1004,4 hPa 0,0 l/m 1,2 km/h (1 Bft) O-SO 108 -1,3 C -0,7 C 4,3 km/h (1 Bft) 100 %
30.11.2023 23:00 -0,6 C 96 % 1004,3 hPa 0,0 l/m 3,3 km/h (1 Bft) O-SO 108 -1,2 C -0,6 C 10,9 km/h (2 Bft) 98 %
30.11.2023 22:50 -0,6 C 96 % 1004,3 hPa 0,0 l/m 1,9 km/h (1 Bft) SO 134 -1,2 C -0,6 C 6,5 km/h (2 Bft) 98 %
30.11.2023 22:40 -0,4 C 96 % 1004,1 hPa 0,0 l/m 1,9 km/h (1 Bft) O-SO 121 -1,0 C -0,4 C 8,7 km/h (2 Bft) 100 %
30.11.2023 22:30 -0,4 C 96 % 1004,0 hPa 0,0 l/m 1,6 km/h (1 Bft) O 94 -1,0 C -0,4 C 8,7 km/h (2 Bft) 99 %
30.11.2023 22:20 -0,3 C 96 % 1004,0 hPa 0,0 l/m 3,0 km/h (1 Bft) O 84 -0,9 C -0,3 C 15,2 km/h (3 Bft) 100 %
30.11.2023 22:10 -0,2 C 96 % 1004,0 hPa 0,0 l/m 2,3 km/h (1 Bft) O-SO 103 -0,8 C -0,2 C 8,7 km/h (2 Bft) 99 %
30.11.2023 22:00 -0,2 C 96 % 1003,8 hPa 0,0 l/m 1,6 km/h (1 Bft) O-NO 78 -0,8 C -0,2 C 8,7 km/h (2 Bft) 100 %
30.11.2023 21:50 -0,1 C 96 % 1003,9 hPa 0,0 l/m 3,7 km/h (1 Bft) O 80 -0,7 C -0,1 C 15,2 km/h (3 Bft) 100 %
30.11.2023 21:40 0,0 C 97 % 1003,7 hPa 0,0 l/m 3,0 km/h (1 Bft) O-NO 71 -0,4 C 0,0 C 10,9 km/h (2 Bft) 99 %
30.11.2023 21:30 0,0 C 97 % 1003,7 hPa 0,0 l/m 1,5 km/h (1 Bft) O 93 -0,4 C 0,0 C 8,7 km/h (2 Bft) 98 %
30.11.2023 21:20 0,1 C 97 % 1003,7 hPa 0,0 l/m 0,9 km/h (0 Bft) O-SO 115 -0,3 C 0,1 C 6,5 km/h (2 Bft) 100 %
30.11.2023 21:10 0,1 C 97 % 1003,7 hPa 0,0 l/m 1,2 km/h (1 Bft) O-SO 115 -0,3 C 0,1 C 6,5 km/h (2 Bft) 100 %
30.11.2023 21:00 0,1 C 97 % 1003,6 hPa 0,0 l/m 1,2 km/h (1 Bft) O-SO 115 -0,3 C 0,1 C 6,5 km/h (2 Bft) 100 %
30.11.2023 20:50 0,1 C 97 % 1003,5 hPa 0,0 l/m 0,6 km/h (0 Bft) O-SO 115 -0,3 C 0,1 C 4,3 km/h (1 Bft) 100 %
30.11.2023 20:40 0,1 C 97 % 1003,4 hPa 0,0 l/m 0,6 km/h (0 Bft) O-SO 115 -0,3 C 0,1 C 4,3 km/h (1 Bft) 100 %
30.11.2023 20:30 0,1 C 97 % 1003,3 hPa 0,0 l/m 0,3 km/h (0 Bft) O-SO 115 -0,3 C 0,1 C 4,3 km/h (1 Bft) 99 %
30.11.2023 20:20 0,1 C 97 % 1003,3 hPa 0,0 l/m 1,2 km/h (1 Bft) O-SO 115 -0,3 C 0,1 C 6,5 km/h (2 Bft) 99 %
30.11.2023 20:10 0,0 C 97 % 1003,3 hPa 0,0 l/m 1,8 km/h (1 Bft) O-SO 115 -0,4 C 0,0 C 6,5 km/h (2 Bft) 99 %
30.11.2023 20:00 0,1 C 97 % 1003,1 hPa 0,0 l/m 0,3 km/h (0 Bft) O-SO 115 -0,3 C 0,1 C 4,3 km/h (1 Bft) 100 %
30.11.2023 19:50 0,1 C 97 % 1003,0 hPa 0,0 l/m 0,8 km/h (0 Bft) O-SO 115 -0,3 C 0,1 C 6,5 km/h (2 Bft) 99 %
30.11.2023 19:40 0,1 C 97 % 1003,0 hPa 0,0 l/m 1,5 km/h (1 Bft) O-SO 113 -0,3 C 0,1 C 6,5 km/h (2 Bft) 99 %
30.11.2023 19:30 0,1 C 97 % 1002,9 hPa 0,0 l/m 1,4 km/h (1 Bft) O-SO 115 -0,3 C 0,1 C 6,5 km/h (2 Bft) 100 %
30.11.2023 19:20 0,1 C 97 % 1002,8 hPa 0,0 l/m 1,8 km/h (1 Bft) O-SO 113 -0,3 C 0,1 C 6,5 km/h (2 Bft) 100 %
30.11.2023 19:10 0,2 C 97 % 1002,8 hPa 0,0 l/m 3,0 km/h (1 Bft) O-SO 113 -0,2 C 0,2 C 8,7 km/h (2 Bft) 100 %
30.11.2023 19:00 0,2 C 97 % 1002,8 hPa 0,0 l/m 1,8 km/h (1 Bft) O-SO 107 -0,2 C 0,2 C 6,5 km/h (2 Bft) 100 %
30.11.2023 18:50 0,2 C 97 % 1002,7 hPa 0,0 l/m 0,6 km/h (0 Bft) O-SO 107 -0,2 C 0,2 C 6,5 km/h (2 Bft) 100 %
30.11.2023 18:40 0,2 C 97 % 1002,5 hPa 0,0 l/m 3,2 km/h (1 Bft) O-SO 107 -0,2 C 0,2 C 8,7 km/h (2 Bft) 100 %
30.11.2023 18:30 0,2 C 97 % 1002,4 hPa 0,0 l/m 2,9 km/h (1 Bft) O 96 -0,2 C 0,2 C 8,7 km/h (2 Bft) 99 %
30.11.2023 18:20 0,2 C 97 % 1002,4 hPa 0,0 l/m 2,4 km/h (1 Bft) O-SO 111 -0,2 C 0,2 C 6,5 km/h (2 Bft) 99 %
30.11.2023 18:10 0,2 C 97 % 1002,5 hPa 0,0 l/m 2,8 km/h (1 Bft) O-SO 104 -0,2 C 0,2 C 8,7 km/h (2 Bft) 99 %
30.11.2023 18:02 0,3 C 97 % 1002,4 hPa 0,0 l/m 3,4 km/h (1 Bft) O 82 -0,1 C 0,3 C 10,9 km/h (2 Bft) 99 %
30.11.2023 17:50 0,3 C 97 % 1002,7 hPa 0,0 l/m 2,6 km/h (1 Bft) O 91 -0,1 C 0,3 C 8,7 km/h (2 Bft) 100 %
30.11.2023 17:40 0,3 C 97 % 1002,6 hPa 0,0 l/m 1,7 km/h (1 Bft) O 92 -0,1 C 0,3 C 8,7 km/h (2 Bft) 99 %
30.11.2023 17:30 0,3 C 97 % 1002,7 hPa 0,0 l/m 1,2 km/h (1 Bft) O 81 -0,1 C 0,3 C 6,5 km/h (2 Bft) 99 %
30.11.2023 17:20 0,3 C 97 % 1002,7 hPa 0,0 l/m 2,3 km/h (1 Bft) O 80 -0,1 C 0,3 C 8,7 km/h (2 Bft) 100 %
30.11.2023 17:10 0,3 C 97 % 1002,7 hPa 0,0 l/m 2,3 km/h (1 Bft) O 79 -0,1 C 0,3 C 10,9 km/h (2 Bft) 100 %
30.11.2023 17:00 0,3 C 97 % 1002,6 hPa 0,0 l/m 1,5 km/h (1 Bft) O 83 -0,1 C 0,3 C 6,5 km/h (2 Bft) 99 %
30.11.2023 16:50 0,3 C 97 % 1002,6 hPa 0,0 l/m 2,7 km/h (1 Bft) O 83 -0,1 C 0,3 C 10,9 km/h (2 Bft) 99 %
30.11.2023 16:40 0,3 C 97 % 1002,5 hPa 0,0 l/m 4,5 km/h (1 Bft) O 93 -0,1 C 0,3 C 15,2 km/h (3 Bft) 100 %
30.11.2023 16:30 0,4 C 97 % 1002,5 hPa 0,0 l/m 1,7 km/h (1 Bft) O 93 -0,0 C 0,4 C 8,7 km/h (2 Bft) 99 %
30.11.2023 16:20 0,4 C 97 % 1002,4 hPa 0,0 l/m 1,4 km/h (1 Bft) O 92 -0,0 C 0,4 C 6,5 km/h (2 Bft) 100 %
30.11.2023 16:10 0,5 C 97 % 1002,4 hPa 0,0 l/m 1,0 km/h (0 Bft) O-NO 74 0,1 C 0,5 C 4,3 km/h (1 Bft) 100 %
30.11.2023 16:00 0,6 C 97 % 1002,3 hPa 0,0 l/m 2,0 km/h (1 Bft) O-NO 74 0,2 C 0,6 C 8,7 km/h (2 Bft) 99 %
30.11.2023 15:50 0,6 C 97 % 1002,3 hPa 0,0 l/m 1,7 km/h (1 Bft) O 93 0,2 C 0,6 C 6,5 km/h (2 Bft) 99 %
30.11.2023 15:40 0,7 C 97 % 1002,2 hPa 0,0 l/m 1,1 km/h (1 Bft) O-SO 117 0,3 C 0,7 C 6,5 km/h (2 Bft) 98 %
30.11.2023 15:30 0,7 C 97 % 1002,1 hPa 0,0 l/m 1,3 km/h (1 Bft) O-SO 118 0,3 C 0,7 C 6,5 km/h (2 Bft) 99 %
30.11.2023 15:20 0,7 C 97 % 1002,0 hPa 0,0 l/m 0,9 km/h (0 Bft) O-SO 118 0,3 C 0,7 C 4,3 km/h (1 Bft) 99 %
30.11.2023 15:10 0,7 C 97 % 1002,0 hPa 0,0 l/m 1,2 km/h (1 Bft) O-SO 118 0,3 C 0,7 C 6,5 km/h (2 Bft) 100 %
30.11.2023 15:00 0,6 C 97 % 1002,1 hPa 0,0 l/m 0,7 km/h (0 Bft) O-SO 118 0,2 C 0,6 C 4,3 km/h (1 Bft) 100 %
30.11.2023 14:50 0,6 C 97 % 1002,1 hPa 0,0 l/m 0,3 km/h (0 Bft) O-SO 118 0,2 C 0,6 C 2,2 km/h (1 Bft) 99 %
30.11.2023 14:40 0,6 C 97 % 1002,0 hPa 0,0 l/m 1,7 km/h (1 Bft) O-SO 118 0,2 C 0,6 C 6,5 km/h (2 Bft) 99 %
30.11.2023 14:30 0,5 C 97 % 1002,0 hPa 0,0 l/m 1,0 km/h (0 Bft) O-SO 118 0,1 C 0,5 C 4,3 km/h (1 Bft) 99 %
30.11.2023 14:20 0,4 C 97 % 1002,0 hPa 0,0 l/m 0,1 km/h (0 Bft) O-SO 119 -0,0 C 0,4 C 2,2 km/h (1 Bft) 100 %
30.11.2023 14:10 0,4 C 97 % 1002,0 hPa 0,0 l/m 1,6 km/h (1 Bft) O-SO 119 -0,0 C 0,4 C 6,5 km/h (2 Bft) 99 %
30.11.2023 14:00 0,3 C 97 % 1002,0 hPa 0,0 l/m 1,1 km/h (1 Bft) SO 142 -0,1 C 0,3 C 6,5 km/h (2 Bft) 99 %
30.11.2023 13:50 0,3 C 97 % 1001,9 hPa 0,0 l/m 0,4 km/h (0 Bft) SO 143 -0,1 C 0,3 C 4,3 km/h (1 Bft) 99 %
30.11.2023 13:40 0,2 C 97 % 1002,0 hPa 0,0 l/m 0,5 km/h (0 Bft) SO 143 -0,2 C 0,2 C 4,3 km/h (1 Bft) 99 %
30.11.2023 13:30 0,1 C 97 % 1002,1 hPa 0,0 l/m 0,4 km/h (0 Bft) SO 144 -0,3 C 0,1 C 4,3 km/h (1 Bft) 99 %
30.11.2023 13:20 0,0 C 97 % 1002,0 hPa 0,0 l/m 0,4 km/h (0 Bft) SO 144 -0,4 C 0,0 C 4,3 km/h (1 Bft) 100 %
30.11.2023 13:10 0,0 C 97 % 1002,0 hPa 0,0 l/m 1,5 km/h (1 Bft) SO 144 -0,4 C 0,0 C 8,7 km/h (2 Bft) 100 %
30.11.2023 13:00 0,1 C 97 % 1002,1 hPa 0,0 l/m 1,7 km/h (1 Bft) S 171 -0,3 C 0,1 C 8,7 km/h (2 Bft) 99 %
30.11.2023 12:50 0,2 C 96 % 1002,1 hPa 0,0 l/m 1,7 km/h (1 Bft) S 175 -0,4 C 0,2 C 10,9 km/h (2 Bft) 100 %
30.11.2023 12:40 0,4 C 97 % 1002,1 hPa 0,0 l/m 2,2 km/h (1 Bft) SO 126 -0,0 C 0,4 C 8,7 km/h (2 Bft) 100 %
30.11.2023 12:30 0,4 C 97 % 1002,0 hPa 0,0 l/m 1,5 km/h (1 Bft) O-SO 121 -0,0 C 0,4 C 6,5 km/h (2 Bft) 100 %
30.11.2023 12:20 0,4 C 97 % 1002,1 hPa 0,0 l/m 1,2 km/h (1 Bft) O-SO 123 -0,0 C 0,4 C 6,5 km/h (2 Bft) 99 %
30.11.2023 12:10 0,4 C 97 % 1002,2 hPa 0,0 l/m 0,5 km/h (0 Bft) O-SO 123 -0,0 C 0,4 C 4,3 km/h (1 Bft) 100 %
30.11.2023 12:00 0,4 C 97 % 1002,2 hPa 0,0 l/m 1,2 km/h (1 Bft) O-SO 123 -0,0 C 0,4 C 6,5 km/h (2 Bft) 100 %
30.11.2023 11:50 0,4 C 97 % 1002,2 hPa 0,0 l/m 1,3 km/h (1 Bft) O-SO 115 -0,0 C 0,4 C 8,7 km/h (2 Bft) 100 %
30.11.2023 11:40 0,4 C 97 % 1002,2 hPa 0,0 l/m 1,3 km/h (1 Bft) O-SO 117 -0,0 C 0,4 C 4,3 km/h (1 Bft) 100 %
30.11.2023 11:30 0,4 C 97 % 1002,3 hPa 0,0 l/m 1,9 km/h (1 Bft) O 90 -0,0 C 0,4 C 6,5 km/h (2 Bft) 99 %
30.11.2023 11:20 0,4 C 97 % 1002,3 hPa 0,0 l/m 2,5 km/h (1 Bft) O 90 -0,0 C 0,4 C 8,7 km/h (2 Bft) 98 %
30.11.2023 11:10 0,3 C 97 % 1002,4 hPa 0,0 l/m 1,7 km/h (1 Bft) O-SO 121 -0,1 C 0,3 C 4,3 km/h (1 Bft) 99 %
30.11.2023 11:00 0,3 C 97 % 1002,5 hPa 0,0 l/m 0,6 km/h (0 Bft) O-SO 123 -0,1 C 0,3 C 6,5 km/h (2 Bft) 100 %
30.11.2023 10:50 0,3 C 97 % 1002,4 hPa 0,0 l/m 0,4 km/h (0 Bft) SO 146 -0,1 C 0,3 C 4,3 km/h (1 Bft) 100 %
30.11.2023 10:40 0,3 C 97 % 1002,5 hPa 0,0 l/m 0,5 km/h (0 Bft) S-SO 147 -0,1 C 0,3 C 4,3 km/h (1 Bft) 99 %
30.11.2023 10:30 0,3 C 97 % 1002,6 hPa 0,0 l/m 0,4 km/h (0 Bft) SO 132 -0,1 C 0,3 C 4,3 km/h (1 Bft) 100 %
30.11.2023 10:20 0,2 C 97 % 1002,7 hPa 0,0 l/m 0,3 km/h (0 Bft) SO 132 -0,2 C 0,2 C 4,3 km/h (1 Bft) 100 %
30.11.2023 10:10 0,2 C 97 % 1002,7 hPa 0,0 l/m 0,6 km/h (0 Bft) SO 132 -0,2 C 0,2 C 4,3 km/h (1 Bft) 98 %
30.11.2023 10:00 0,2 C 97 % 1002,7 hPa 0,0 l/m 0,9 km/h (0 Bft) SO 131 -0,2 C 0,2 C 6,5 km/h (2 Bft) 100 %
30.11.2023 09:50 0,2 C 97 % 1002,8 hPa 0,0 l/m 0,4 km/h (0 Bft) S-SO 165 -0,2 C 0,2 C 8,7 km/h (2 Bft) 99 %
30.11.2023 09:40 0,2 C 97 % 1002,8 hPa 0,0 l/m 1,2 km/h (1 Bft) S-SO 164 -0,2 C 0,2 C 8,7 km/h (2 Bft) 99 %
30.11.2023 09:30 0,2 C 97 % 1002,8 hPa 0,0 l/m 0,5 km/h (0 Bft) SO 146 -0,2 C 0,2 C 6,5 km/h (2 Bft) 99 %
30.11.2023 09:20 0,2 C 97 % 1002,8 hPa 0,0 l/m 0,6 km/h (0 Bft) S-SO 148 -0,2 C 0,2 C 6,5 km/h (2 Bft) 100 %
30.11.2023 09:10 0,1 C 97 % 1002,9 hPa 0,0 l/m 0,4 km/h (0 Bft) SO 133 -0,3 C 0,1 C 4,3 km/h (1 Bft) 100 %
30.11.2023 09:00 0,0 C 97 % 1002,8 hPa 0,0 l/m 0,3 km/h (0 Bft) SO 131 -0,4 C 0,0 C 6,5 km/h (2 Bft) 99 %
30.11.2023 08:50 -0,1 C 97 % 1002,8 hPa 0,0 l/m 0,0 km/h (0 Bft) S 175 -0,5 C -0,1 C 2,2 km/h (1 Bft) 99 %
30.11.2023 08:40 -0,2 C 97 % 1002,7 hPa 0,0 l/m 0,0 km/h (0 Bft) S 175 -0,6 C -0,2 C 0,0 km/h (0 Bft) 100 %
30.11.2023 08:30 -0,2 C 97 % 1002,6 hPa 0,0 l/m 0,0 km/h (0 Bft) S 175 -0,6 C -0,2 C 0,0 km/h (0 Bft) 98 %
30.11.2023 08:20 -0,2 C 97 % 1002,6 hPa 0,0 l/m 0,0 km/h (0 Bft) S 175 -0,6 C -0,2 C 0,0 km/h (0 Bft) 98 %
30.11.2023 08:10 -0,2 C 96 % 1002,5 hPa 0,0 l/m 0,1 km/h (0 Bft) S 175 -0,8 C -0,2 C 2,2 km/h (1 Bft) 100 %
30.11.2023 08:00 -0,2 C 97 % 1002,4 hPa 0,0 l/m 0,0 km/h (0 Bft) S 175 -0,6 C -0,2 C 2,2 km/h (1 Bft) 100 %
30.11.2023 07:50 -0,2 C 97 % 1002,5 hPa 0,0 l/m 0,0 km/h (0 Bft) S 175 -0,6 C -0,2 C 2,2 km/h (1 Bft) 98 %
30.11.2023 07:40 -0,2 C 97 % 1002,5 hPa 0,0 l/m 0,2 km/h (0 Bft) S 175 -0,6 C -0,2 C 4,3 km/h (1 Bft) 98 %
30.11.2023 07:30 -0,3 C 97 % 1002,4 hPa 0,0 l/m 0,1 km/h (0 Bft) S 175 -0,7 C -0,3 C 2,2 km/h (1 Bft) 98 %
30.11.2023 07:20 -0,3 C 97 % 1002,3 hPa 0,0 l/m 0,0 km/h (0 Bft) S 175 -0,7 C -0,3 C 0,0 km/h (0 Bft) 100 %
30.11.2023 07:10 -0,4 C 97 % 1002,4 hPa 0,0 l/m 0,0 km/h (0 Bft) S 175 -0,8 C -0,4 C 0,0 km/h (0 Bft) 100 %
30.11.2023 07:00 -0,4 C 97 % 1002,4 hPa 0,0 l/m 0,0 km/h (0 Bft) S 175 -0,8 C -0,4 C 0,0 km/h (0 Bft) 99 %
30.11.2023 06:50 -0,5 C 96 % 1002,3 hPa 0,0 l/m 0,0 km/h (0 Bft) S 175 -1,1 C -0,5 C 0,0 km/h (0 Bft) 100 %
30.11.2023 06:40 -0,6 C 96 % 1002,3 hPa 0,0 l/m 0,0 km/h (0 Bft) S 175 -1,2 C -0,6 C 0,0 km/h (0 Bft) 100 %
30.11.2023 06:30 -0,6 C 97 % 1002,2 hPa 0,0 l/m 0,2 km/h (0 Bft) S 175 -1,0 C -0,6 C 4,3 km/h (1 Bft) 99 %
30.11.2023 06:20 -0,7 C 96 % 1002,3 hPa 0,0 l/m 0,1 km/h (0 Bft) O-NO 77 -1,3 C -0,7 C 4,3 km/h (1 Bft) 100 %
30.11.2023 06:10 -0,7 C 97 % 1002,3 hPa 0,0 l/m 1,4 km/h (1 Bft) O-NO 76 -1,1 C -0,7 C 6,5 km/h (2 Bft) 100 %
30.11.2023 06:00 -0,7 C 97 % 1002,2 hPa 0,0 l/m 0,7 km/h (0 Bft) O 84 -1,1 C -0,7 C 4,3 km/h (1 Bft) 99 %
30.11.2023 05:50 -0,7 C 97 % 1002,3 hPa 0,0 l/m 0,4 km/h (0 Bft) O 84 -1,1 C -0,7 C 4,3 km/h (1 Bft) 99 %
30.11.2023 05:40 -0,8 C 96 % 1002,2 hPa 0,0 l/m 0,0 km/h (0 Bft) O 84 -1,4 C -0,8 C 0,0 km/h (0 Bft) 100 %
30.11.2023 05:30 -0,9 C 96 % 1002,2 hPa 0,0 l/m 0,0 km/h (0 Bft) O-NO 76 -1,5 C -0,9 C 0,0 km/h (0 Bft) 100 %
30.11.2023 05:20 -0,9 C 96 % 1002,3 hPa 0,0 l/m 0,2 km/h (0 Bft) O-NO 76 -1,5 C -0,9 C 4,3 km/h (1 Bft) 100 %
30.11.2023 05:10 -0,8 C 96 % 1002,1 hPa 0,0 l/m 1,1 km/h (1 Bft) O-NO 69 -1,4 C -0,8 C 6,5 km/h (2 Bft) 99 %
30.11.2023 05:00 -0,8 C 96 % 1002,1 hPa 0,0 l/m 0,5 km/h (0 Bft) SO 128 -1,4 C -0,8 C 4,3 km/h (1 Bft) 100 %
30.11.2023 04:50 -0,9 C 96 % 1002,2 hPa 0,0 l/m 0,2 km/h (0 Bft) SO 129 -1,5 C -0,9 C 2,2 km/h (1 Bft) 100 %
30.11.2023 04:40 -0,9 C 96 % 1002,1 hPa 0,0 l/m 0,8 km/h (0 Bft) SO 127 -1,5 C -0,9 C 4,3 km/h (1 Bft) 100 %
30.11.2023 04:30 -0,9 C 96 % 1002,3 hPa 0,0 l/m 0,0 km/h (0 Bft) S-SW 213 -1,5 C -0,9 C 0,0 km/h (0 Bft) 98 %
30.11.2023 04:20 -0,9 C 96 % 1002,4 hPa 0,0 l/m 0,0 km/h (0 Bft) S-SW 213 -1,5 C -0,9 C 0,0 km/h (0 Bft) 99 %
30.11.2023 04:10 -0,9 C 96 % 1002,5 hPa 0,0 l/m 0,0 km/h (0 Bft) S-SW 213 -1,5 C -0,9 C 0,0 km/h (0 Bft) 100 %
30.11.2023 04:00 -0,9 C 96 % 1002,4 hPa 0,0 l/m 0,0 km/h (0 Bft) S-SW 213 -1,5 C -0,9 C 0,0 km/h (0 Bft) 100 %
30.11.2023 03:50 -0,9 C 96 % 1002,5 hPa 0,0 l/m 0,0 km/h (0 Bft) S-SW 213 -1,5 C -0,9 C 2,2 km/h (1 Bft) 99 %
30.11.2023 03:40 -0,9 C 96 % 1002,5 hPa 0,0 l/m 0,0 km/h (0 Bft) S-SW 213 -1,5 C -0,9 C 2,2 km/h (1 Bft) 100 %
30.11.2023 03:30 -0,9 C 96 % 1002,5 hPa 0,0 l/m 0,2 km/h (0 Bft) S-SW 213 -1,5 C -0,9 C 2,2 km/h (1 Bft) 99 %
30.11.2023 03:20 -0,9 C 96 % 1002,6 hPa 0,0 l/m 0,2 km/h (0 Bft) S-SW 213 -1,5 C -0,9 C 4,3 km/h (1 Bft) 100 %
30.11.2023 03:10 -0,9 C 96 % 1002,7 hPa 0,0 l/m 0,1 km/h (0 Bft) SW 217 -1,5 C -0,9 C 2,2 km/h (1 Bft) 99 %
30.11.2023 03:00 -0,9 C 96 % 1002,8 hPa 0,0 l/m 1,8 km/h (1 Bft) SW 217 -1,5 C -0,9 C 6,5 km/h (2 Bft) 100 %
30.11.2023 02:50 -0,8 C 96 % 1002,9 hPa 0,0 l/m 0,7 km/h (0 Bft) SW 218 -1,4 C -0,8 C 4,3 km/h (1 Bft) 100 %
30.11.2023 02:45 -0,7 C 96 % 1002,9 hPa 0,0 l/m 0,0 km/h (0 Bft) SW 218 -1,3 C -0,7 C 0,0 km/h (0 Bft) 100 %
30.11.2023 02:30 -0,6 C 96 % 1002,8 hPa 0,0 l/m 0,0 km/h (0 Bft) SW 218 -1,2 C -0,6 C 0,0 km/h (0 Bft) 99 %
30.11.2023 02:20 -0,5 C 96 % 1002,8 hPa 0,0 l/m 0,0 km/h (0 Bft) SW 218 -1,1 C -0,5 C 0,0 km/h (0 Bft) 99 %
30.11.2023 02:10 -0,4 C 96 % 1002,8 hPa 0,0 l/m 0,0 km/h (0 Bft) SW 218 -1,0 C -0,4 C 0,0 km/h (0 Bft) 100 %
30.11.2023 02:00 -0,4 C 96 % 1002,9 hPa 0,0 l/m 0,0 km/h (0 Bft) SW 218 -1,0 C -0,4 C 0,0 km/h (0 Bft) 99 %
30.11.2023 01:50 -0,4 C 96 % 1002,9 hPa 0,0 l/m 0,0 km/h (0 Bft) SW 218 -1,0 C -0,4 C 0,0 km/h (0 Bft) 100 %
30.11.2023 01:40 -0,3 C 96 % 1002,9 hPa 0,0 l/m 1,1 km/h (1 Bft) SW 218 -0,9 C -0,3 C 4,3 km/h (1 Bft) 99 %
30.11.2023 01:30 -0,3 C 96 % 1002,8 hPa 0,0 l/m 1,6 km/h (1 Bft) SW 218 -0,9 C -0,3 C 4,3 km/h (1 Bft) 99 %
30.11.2023 01:20 -0,3 C 96 % 1002,9 hPa 0,0 l/m 2,1 km/h (1 Bft) SW 217 -0,9 C -0,3 C 6,5 km/h (2 Bft) 100 %
30.11.2023 01:10 -0,2 C 96 % 1003,0 hPa 0,0 l/m 1,3 km/h (1 Bft) SW 219 -0,8 C -0,2 C 4,3 km/h (1 Bft) 99 %
30.11.2023 01:00 -0,2 C 96 % 1003,0 hPa 0,0 l/m 0,8 km/h (0 Bft) SW 219 -0,8 C -0,2 C 4,3 km/h (1 Bft) 100 %
_ Min-Zeit 03:00 01:00 13:50 - 01:50 - - 03:00 03:00 01:50 07:30
Minimum _ -0,9 C 96 % 1001,9 hPa - 0,0 km/h (0 Bft) - - -1,5 C -0,9 C 0,0 km/h (0 Bft) 98 %
_ Max-Zeit 15:10 05:50 00:00 01:00 16:40 - - 15:10 15:10 16:40 02:50
Maximum _ 0,7 C 97 % 1004,8 hPa 0,0 l/m 4,5 km/h
O (1 Bft)
- - 0,3 C 0,7 C 15,2 km/h
O-NO (3 Bft)
100 %
Durchschnitt _ -0,1 C 97 % 1002,8 hPa #0,0 l/m 1,1 km/h (1 Bft) O-SO - -0,6 C -0,1 C 5,4 km/h (1 Bft) 99 %